RZE weather

Rzeszów-Jasionka Airport
Rzeszów, Subcarpathia, Poland

Public forecast

Using degrees Celsius for public forecast. Weather courtesy of forecast.io.

METAR (pilot weather report)

Retrieved 2019/03/19 07:30 UTC (23 minutes ago):

EPRZ 190730Z 27008KT 240V310 CAVOK 05/M00 Q1022

TAF (pilot weather forecast)

Retrieved 2019/03/19 06:36 UTC (1 hour ago):

TAF EPRZ 190530Z 1906/2006 28010KT CAVOK PROB40 TEMPO 1909/1917 SCT030CB TEMPO 1923/2006 3000 BR